Penguin Arrow — C6PA6 — position and weather

sailwx.info

Track history (hours):
 
Tides and Currents Weather Stations Pressure Air Temp Water Temp Dewpoint Dewpoint Depression Visibility Wind Speed Wind Dir Waves Ship Positions

Penguin Arrow

Last reported at 2017-Jul-24 16:56 UTC. Time now 2017-Jul-27 04:41 UTC.
Position N 34°54' E 139°22'.

Length 200 m; draft 11 m.

Type: Cargo ship. MMSI: 309927000.

Date/timePositionNaut miles runAvg speedWind from/ knotsBaromVisibWave heightAir tempDewpointWater temp
2017-Jul-24 16:56N 34°54' E 139°22'4 9.1
2017-Jul-24 16:31N 34°56' E 139°26'5 8.9
2017-Jul-24 16:00N 34°58' E 139°31'25 8.5
2017-Jul-24 13:00N 35°22' E 139°42'611.3
2017-Jul-24 12:30N 35°27' E 139°43'1 2.0
2017-Jul-24 12:01N 35°28' E 139°42'0 0.0
2017-Jul-24 11:28N 35°28' E 139°42'0 0.0
2017-Jul-24 10:58N 35°28' E 139°42'0 0.0
2017-Jul-24 10:25N 35°28' E 139°42'0 0.0
2017-Jul-24 09:58N 35°28' E 139°42'0 0.0
2017-Jul-24 09:28N 35°28' E 139°42'0 0.0
2017-Jul-24 08:58N 35°28' E 139°42'0 0.0
2017-Jul-24 08:28N 35°28' E 139°42'0 0.0
2017-Jul-24 07:58N 35°28' E 139°42'0 0.0
2017-Jul-24 07:28N 35°28' E 139°42'0 0.0
2017-Jul-24 06:58N 35°28' E 139°42'0 0.0
2017-Jul-24 06:28N 35°28' E 139°42'0 0.0
2017-Jul-24 05:58N 35°28' E 139°42'0 0.0
2017-Jul-24 05:28N 35°28' E 139°42'0 0.0
2017-Jul-24 04:58N 35°28' E 139°42'0 0.0
2017-Jul-24 04:28N 35°28' E 139°42'0 0.0
2017-Jul-24 03:58N 35°28' E 139°42'0 0.0
2017-Jul-24 03:28N 35°28' E 139°42'0 0.0
2017-Jul-24 02:58N 35°28' E 139°42'0 0.0
2017-Jul-24 02:28N 35°28' E 139°42'0 0.0
2017-Jul-24 01:58N 35°28' E 139°42'0 0.0
2017-Jul-24 01:28N 35°28' E 139°42'0 0.0
2017-Jul-24 00:58N 35°28' E 139°42'0 0.0
2017-Jul-24 00:28N 35°28' E 139°42'0 0.0
2017-Jul-23 23:58N 35°28' E 139°42'0 0.0
2017-Jul-23 23:28N 35°28' E 139°42'0 0.0
2017-Jul-23 22:55N 35°28' E 139°42'0 0.0
2017-Jul-23 22:28N 35°28' E 139°42'0 0.0
2017-Jul-23 21:58N 35°28' E 139°42'0 0.0
2017-Jul-23 21:28N 35°28' E 139°42'0 0.0
2017-Jul-23 20:58N 35°28' E 139°42'0 0.0
2017-Jul-23 20:28N 35°28' E 139°42'0 0.0
2017-Jul-23 19:58N 35°28' E 139°42'0 0.0
2017-Jul-23 19:28N 35°28' E 139°42'0 0.0
2017-Jul-23 18:58N 35°28' E 139°42'0 0.0
2017-Jul-23 18:28N 35°28' E 139°42'0 0.0
2017-Jul-23 17:58N 35°28' E 139°42'0 0.0
2017-Jul-23 17:28N 35°28' E 139°42'0 0.0
2017-Jul-23 16:58N 35°28' E 139°42'0 0.0
2017-Jul-23 16:28N 35°28' E 139°42'0 0.0
2017-Jul-23 15:58N 35°28' E 139°42'0 0.0
2017-Jul-23 15:28N 35°28' E 139°42'0 0.0
2017-Jul-23 14:58N 35°28' E 139°42'0 0.0
2017-Jul-23 14:28N 35°28' E 139°42'0 0.0
2017-Jul-23 13:58N 35°28' E 139°42'0 0.0
2017-Jul-23 13:28N 35°28' E 139°42'0 0.0
2017-Jul-23 12:58N 35°28' E 139°42'0 0.0
2017-Jul-23 12:28N 35°28' E 139°42'0 0.0
2017-Jul-23 11:58N 35°28' E 139°42'0 0.0
2017-Jul-23 11:28N 35°28' E 139°42'0 0.0
2017-Jul-23 10:58N 35°28' E 139°42'0 0.0
2017-Jul-23 10:28N 35°28' E 139°42'0 0.0
2017-Jul-23 09:58N 35°28' E 139°42'0 0.0
2017-Jul-23 09:28N 35°28' E 139°42'0 0.0
2017-Jul-23 08:55N 35°28' E 139°42'0 0.0
2017-Jul-23 08:28N 35°28' E 139°42'0 0.0
2017-Jul-23 07:58N 35°28' E 139°42'0 0.0
2017-Jul-23 07:28N 35°28' E 139°42'0 0.0
2017-Jul-23 06:58N 35°28' E 139°42'1 2.6
2017-Jul-23 06:31N 35°27' E 139°43'4 8.5
2017-Jul-23 06:00N 35°24' E 139°46'612.2
2017-Jul-23 05:30N 35°18' E 139°45'612.1
2017-Jul-23 05:00N 35°12' E 139°47'5 9.4
2017-Jul-23 04:30N 35°08' E 139°45'4 8.1
2017-Jul-23 04:00N 35°04' E 139°44'510.7
2017-Jul-23 03:30N 35°03' E 139°37'611.8
2017-Jul-23 03:00N 35°05' E 139°30'3 5.9
2017-Jul-23 02:30N 35°05' E 139°27'0 0.7
2017-Jul-23 02:00N 35°05' E 139°26'0 1.0
2017-Jul-23 01:30N 35°05' E 139°26'0 0.9
2017-Jul-23 01:00N 35°05' E 139°25'0 0.9
2017-Jul-23 00:30N 35°05' E 139°25'1 1.2
2017-Jul-22 23:58N 35°04' E 139°24'1 1.3
2017-Jul-22 23:30N 35°04' E 139°23'0 0.7
2017-Jul-22 22:59N 35°04' E 139°23'1 2.9
2017-Jul-22 22:30N 35°06' E 139°24'0 0.2
2017-Jul-22 21:59N 35°06' E 139°24'0 0.9
2017-Jul-22 21:30N 35°06' E 139°24'1 1.0
2017-Jul-22 20:55N 35°05' E 139°23'0 1.0
2017-Jul-22 20:28N 35°05' E 139°22'1 1.2
2017-Jul-22 19:58N 35°05' E 139°22'0 0.7
2017-Jul-22 19:30N 35°04' E 139°22'1 2.4
2017-Jul-22 19:00N 35°04' E 139°23'2 3.9
2017-Jul-22 18:30N 35°04' E 139°25'0 0.5
2017-Jul-22 18:00N 35°04' E 139°25'0 0.4
2017-Jul-22 17:30N 35°03' E 139°25'0 0.4
2017-Jul-22 16:56N 35°03' E 139°25'0 0.5
2017-Jul-22 16:30N 35°03' E 139°24'0 0.0
2017-Jul-22 15:52N 35°03' E 139°24'0 0.4
2017-Jul-22 15:17N 35°03' E 139°24'0 0.3
2017-Jul-22 14:57N 35°03' E 139°24'0 0.5
2017-Jul-22 14:00N 35°04' E 139°24'0 0.4
2017-Jul-22 13:30N 35°04' E 139°24'0 0.4
2017-Jul-22 13:00N 35°04' E 139°24'1 1.2
2017-Jul-22 12:30N 35°04' E 139°25'0 0.3
2017-Jul-22 12:00N 35°04' E 139°25'0 0.3
2017-Jul-22 11:30N 35°04' E 139°24'0 0.6
2017-Jul-22 11:00N 35°04' E 139°24'0 0.2
2017-Jul-22 10:29N 35°04' E 139°24'1 1.6
2017-Jul-22 10:00N 35°04' E 139°25'0 0.6
2017-Jul-22 09:30N 35°04' E 139°25'0 0.9
2017-Jul-22 09:00N 35°04' E 139°24'1 0.9
2017-Jul-22 08:26N 35°04' E 139°24'1 1.4
2017-Jul-22 08:00N 35°03' E 139°24'2 3.4
2017-Jul-22 07:29N 35°03' E 139°26'4 7.5
2017-Jul-22 06:59N 35°03' E 139°31'2 4.4
2017-Jul-22 06:30N 35°01' E 139°32'510.5
2017-Jul-22 06:00N 34°56' E 139°33'611.5
2017-Jul-22 05:29N 34°50' E 139°36'611.9
2017-Jul-22 04:59N 34°45' E 139°38'29112.6
2017-Jul-21 06:00N 30°00' E 140°48'7412.3 160 / 131014.110.8 29.824.9
2017-Jul-21 00:00N 28°48' E 141°06'21512.0 070 / 31015.110.8 25.524.1
2017-Jul-20 06:00N 25°18' E 142°00'6711.1 140 / 21012.310.8 33.425.7
2017-Jul-20 00:00N 24°12' E 142°12'48411.5 140 / 51013.710.8 32.026.9
2017-Jul-18 06:00N 16°12' E 143°18'7412.3 060 / 81010.910.8 34.326.2
2017-Jul-18 00:00N 15°00' E 143°36'19911.0 100 / 71013.310.8 30.525.8
2017-Jul-17 06:00N 11°42' E 143°54'7212.0 060 / 91010.310.8 31.226.2
2017-Jul-17 00:00N 10°30' E 144°00'27811.6 040 / 81011.610.8 25.023.6
2017-Jul-16 00:00N 05°54' E 144°30'19911.7 180 / 81010.210.8 31.028.4
2017-Jul-15 07:00N 02°42' E 145°24'7210.3 250 / 91009.010.8 27.524.1
2017-Jul-15 00:00N 01°30' E 145°18'6711.2 350 / 281012.610.8 25.023.6
2017-Jul-14 18:00N 00°24' E 145°30'   210 / 101009.510.8 24.223.3
Track history (hours):
 
Tides and Currents Weather Stations Pressure Air Temp Water Temp Dewpoint Dewpoint Depression Visibility Wind Speed Wind Dir Waves Ship Positions

Penguin Arrow

Last reported at 2017-Jul-24 16:56 UTC. Time now 2017-Jul-27 04:41 UTC.
Position N 34°54' E 139°22'.

Length 200 m; draft 11 m.

Type: Cargo ship. MMSI: 309927000.

Date/timePositionNaut miles runAvg speedWind from/ knotsBaromVisibWave heightAir tempDewpointWater temp
2017-Jul-24 16:56N 34°54' E 139°22'4 9.1
2017-Jul-24 16:31N 34°56' E 139°26'5 8.9
2017-Jul-24 16:00N 34°58' E 139°31'25 8.5
2017-Jul-24 13:00N 35°22' E 139°42'611.3
2017-Jul-24 12:30N 35°27' E 139°43'1 2.0
2017-Jul-24 12:01N 35°28' E 139°42'0 0.0
2017-Jul-24 11:28N 35°28' E 139°42'0 0.0
2017-Jul-24 10:58N 35°28' E 139°42'0 0.0
2017-Jul-24 10:25N 35°28' E 139°42'0 0.0
2017-Jul-24 09:58N 35°28' E 139°42'0 0.0
2017-Jul-24 09:28N 35°28' E 139°42'0 0.0
2017-Jul-24 08:58N 35°28' E 139°42'0 0.0
2017-Jul-24 08:28N 35°28' E 139°42'0 0.0
2017-Jul-24 07:58N 35°28' E 139°42'0 0.0
2017-Jul-24 07:28N 35°28' E 139°42'0 0.0
2017-Jul-24 06:58N 35°28' E 139°42'0 0.0
2017-Jul-24 06:28N 35°28' E 139°42'0 0.0
2017-Jul-24 05:58N 35°28' E 139°42'0 0.0
2017-Jul-24 05:28N 35°28' E 139°42'0 0.0
2017-Jul-24 04:58N 35°28' E 139°42'0 0.0
2017-Jul-24 04:28N 35°28' E 139°42'0 0.0
2017-Jul-24 03:58N 35°28' E 139°42'0 0.0
2017-Jul-24 03:28N 35°28' E 139°42'0 0.0
2017-Jul-24 02:58N 35°28' E 139°42'0 0.0
2017-Jul-24 02:28N 35°28' E 139°42'0 0.0
2017-Jul-24 01:58N 35°28' E 139°42'0 0.0
2017-Jul-24 01:28N 35°28' E 139°42'0 0.0
2017-Jul-24 00:58N 35°28' E 139°42'0 0.0
2017-Jul-24 00:28N 35°28' E 139°42'0 0.0
2017-Jul-23 23:58N 35°28' E 139°42'0 0.0
2017-Jul-23 23:28N 35°28' E 139°42'0 0.0
2017-Jul-23 22:55N 35°28' E 139°42'0 0.0
2017-Jul-23 22:28N 35°28' E 139°42'0 0.0
2017-Jul-23 21:58N 35°28' E 139°42'0 0.0
2017-Jul-23 21:28N 35°28' E 139°42'0 0.0
2017-Jul-23 20:58N 35°28' E 139°42'0 0.0
2017-Jul-23 20:28N 35°28' E 139°42'0 0.0
2017-Jul-23 19:58N 35°28' E 139°42'0 0.0
2017-Jul-23 19:28N 35°28' E 139°42'0 0.0
2017-Jul-23 18:58N 35°28' E 139°42'0 0.0
2017-Jul-23 18:28N 35°28' E 139°42'0 0.0
2017-Jul-23 17:58N 35°28' E 139°42'0 0.0
2017-Jul-23 17:28N 35°28' E 139°42'0 0.0
2017-Jul-23 16:58N 35°28' E 139°42'0 0.0
2017-Jul-23 16:28N 35°28' E 139°42'0 0.0
2017-Jul-23 15:58N 35°28' E 139°42'0 0.0
2017-Jul-23 15:28N 35°28' E 139°42'0 0.0
2017-Jul-23 14:58N 35°28' E 139°42'0 0.0
2017-Jul-23 14:28N 35°28' E 139°42'0 0.0
2017-Jul-23 13:58N 35°28' E 139°42'0 0.0
2017-Jul-23 13:28N 35°28' E 139°42'0 0.0
2017-Jul-23 12:58N 35°28' E 139°42'0 0.0
2017-Jul-23 12:28N 35°28' E 139°42'0 0.0
2017-Jul-23 11:58N 35°28' E 139°42'0 0.0
2017-Jul-23 11:28N 35°28' E 139°42'0 0.0
2017-Jul-23 10:58N 35°28' E 139°42'0 0.0
2017-Jul-23 10:28N 35°28' E 139°42'0 0.0
2017-Jul-23 09:58N 35°28' E 139°42'0 0.0
2017-Jul-23 09:28N 35°28' E 139°42'0 0.0
2017-Jul-23 08:55N 35°28' E 139°42'0 0.0
2017-Jul-23 08:28N 35°28' E 139°42'0 0.0
2017-Jul-23 07:58N 35°28' E 139°42'0 0.0
2017-Jul-23 07:28N 35°28' E 139°42'0 0.0
2017-Jul-23 06:58N 35°28' E 139°42'1 2.6
2017-Jul-23 06:31N 35°27' E 139°43'4 8.5
2017-Jul-23 06:00N 35°24' E 139°46'612.2
2017-Jul-23 05:30N 35°18' E 139°45'612.1
2017-Jul-23 05:00N 35°12' E 139°47'5 9.4
2017-Jul-23 04:30N 35°08' E 139°45'4 8.1
2017-Jul-23 04:00N 35°04' E 139°44'510.7
2017-Jul-23 03:30N 35°03' E 139°37'611.8
2017-Jul-23 03:00N 35°05' E 139°30'3 5.9
2017-Jul-23 02:30N 35°05' E 139°27'0 0.7
2017-Jul-23 02:00N 35°05' E 139°26'0 1.0
2017-Jul-23 01:30N 35°05' E 139°26'0 0.9
2017-Jul-23 01:00N 35°05' E 139°25'0 0.9
2017-Jul-23 00:30N 35°05' E 139°25'1 1.2
2017-Jul-22 23:58N 35°04' E 139°24'1 1.3
2017-Jul-22 23:30N 35°04' E 139°23'0 0.7
2017-Jul-22 22:59N 35°04' E 139°23'1 2.9
2017-Jul-22 22:30N 35°06' E 139°24'0 0.2
2017-Jul-22 21:59N 35°06' E 139°24'0 0.9
2017-Jul-22 21:30N 35°06' E 139°24'1 1.0
2017-Jul-22 20:55N 35°05' E 139°23'0 1.0
2017-Jul-22 20:28N 35°05' E 139°22'1 1.2
2017-Jul-22 19:58N 35°05' E 139°22'0 0.7
2017-Jul-22 19:30N 35°04' E 139°22'1 2.4
2017-Jul-22 19:00N 35°04' E 139°23'2 3.9
2017-Jul-22 18:30N 35°04' E 139°25'0 0.5
2017-Jul-22 18:00N 35°04' E 139°25'0 0.4
2017-Jul-22 17:30N 35°03' E 139°25'0 0.4
2017-Jul-22 16:56N 35°03' E 139°25'0 0.5
2017-Jul-22 16:30N 35°03' E 139°24'0 0.0
2017-Jul-22 15:52N 35°03' E 139°24'0 0.4
2017-Jul-22 15:17N 35°03' E 139°24'0 0.3
2017-Jul-22 14:57N 35°03' E 139°24'0 0.5
2017-Jul-22 14:00N 35°04' E 139°24'0 0.4
2017-Jul-22 13:30N 35°04' E 139°24'0 0.4
2017-Jul-22 13:00N 35°04' E 139°24'1 1.2
2017-Jul-22 12:30N 35°04' E 139°25'0 0.3
2017-Jul-22 12:00N 35°04' E 139°25'0 0.3
2017-Jul-22 11:30N 35°04' E 139°24'0 0.6
2017-Jul-22 11:00N 35°04' E 139°24'0 0.2
2017-Jul-22 10:29N 35°04' E 139°24'1 1.6
2017-Jul-22 10:00N 35°04' E 139°25'0 0.6
2017-Jul-22 09:30N 35°04' E 139°25'0 0.9
2017-Jul-22 09:00N 35°04' E 139°24'1 0.9
2017-Jul-22 08:26N 35°04' E 139°24'1 1.4
2017-Jul-22 08:00N 35°03' E 139°24'2 3.4
2017-Jul-22 07:29N 35°03' E 139°26'4 7.5
2017-Jul-22 06:59N 35°03' E 139°31'2 4.4
2017-Jul-22 06:30N 35°01' E 139°32'510.5
2017-Jul-22 06:00N 34°56' E 139°33'611.5
2017-Jul-22 05:29N 34°50' E 139°36'611.9
2017-Jul-22 04:59N 34°45' E 139°38'29112.6
2017-Jul-21 06:00N 30°00' E 140°48'7412.3 160 / 131014.110.8 29.824.9
2017-Jul-21 00:00N 28°48' E 141°06'21512.0 070 / 31015.110.8 25.524.1
2017-Jul-20 06:00N 25°18' E 142°00'6711.1 140 / 21012.310.8 33.425.7
2017-Jul-20 00:00N 24°12' E 142°12'48411.5 140 / 51013.710.8 32.026.9
2017-Jul-18 06:00N 16°12' E 143°18'7412.3 060 / 81010.910.8 34.326.2
2017-Jul-18 00:00N 15°00' E 143°36'19911.0 100 / 71013.310.8 30.525.8
2017-Jul-17 06:00N 11°42' E 143°54'7212.0 060 / 91010.310.8 31.226.2
2017-Jul-17 00:00N 10°30' E 144°00'27811.6 040 / 81011.610.8 25.023.6
2017-Jul-16 00:00N 05°54' E 144°30'19911.7 180 / 81010.210.8 31.028.4
2017-Jul-15 07:00N 02°42' E 145°24'7210.3 250 / 91009.010.8 27.524.1
2017-Jul-15 00:00N 01°30' E 145°18'6711.2 350 / 281012.610.8 25.023.6
2017-Jul-14 18:00N 00°24' E 145°30'   210 / 101009.510.8 24.223.3

Dump ship's entire track history